METAR Data
IDs: Format: Raw Decoded Include TAF

Data at: 2051 UTC 18 Apr 2021

EGFF 182020Z AUTO 29006KT 9999 NCD 07/01 Q1023